Lena-s. — V2EC7 — position and weather

sailwx.info

Track history (hours):
 
Tides and Currents Weather Stations Pressure Air Temp Water Temp Dewpoint Dewpoint Depression Visibility Wind Speed Wind Dir Waves Ship Positions

Lena-s.

Last reported at 2017-Nov-12 22:58 UTC. Time now 2017-Nov-20 00:14 UTC.
Position S 27°22' E 153°10'.

Length 261 m; draft 11 m.

Type: Ship (hazmat cat D). MMSI: 305386000.

Date/timePositionNaut miles runAvg speedWind from/ knotsBaromVisibWave heightAir tempDewpointWater temp
2017-Nov-12 22:58S 27°22' E 153°10'0 0.0
2017-Nov-12 22:28S 27°22' E 153°10'0 0.0
2017-Nov-12 21:55S 27°22' E 153°10'0 0.0
2017-Nov-12 21:25S 27°22' E 153°10'0 0.0
2017-Nov-12 20:28S 27°22' E 153°10'0 0.0
2017-Nov-12 19:58S 27°22' E 153°10'0 0.0
2017-Nov-12 19:28S 27°22' E 153°10'0 0.0
2017-Nov-12 18:58S 27°22' E 153°10'0 0.0
2017-Nov-12 18:19S 27°22' E 153°10'0 0.0
2017-Nov-12 17:58S 27°22' E 153°10'0 0.0
2017-Nov-12 17:28S 27°22' E 153°10'0 0.0
2017-Nov-12 16:58S 27°22' E 153°10'0 0.0
2017-Nov-12 16:28S 27°22' E 153°10'0 0.0
2017-Nov-12 15:58S 27°22' E 153°10'0 0.0
2017-Nov-12 15:28S 27°22' E 153°10'0 0.0
2017-Nov-12 14:58S 27°22' E 153°10'0 0.0
2017-Nov-12 14:28S 27°22' E 153°10'0 0.0
2017-Nov-12 13:58S 27°22' E 153°10'0 0.0
2017-Nov-12 13:28S 27°22' E 153°10'0 0.0
2017-Nov-12 12:58S 27°22' E 153°10'0 0.0
2017-Nov-12 12:19S 27°22' E 153°10'0 0.0
2017-Nov-12 11:58S 27°22' E 153°10'0 0.0
2017-Nov-12 11:22S 27°22' E 153°10'0 0.0
2017-Nov-12 10:43S 27°22' E 153°10'0 0.0
2017-Nov-12 09:46S 27°22' E 153°10'0 0.0
2017-Nov-12 09:16S 27°22' E 153°10'0 0.0
2017-Nov-12 08:55S 27°22' E 153°10'0 0.0
2017-Nov-12 06:37S 27°22' E 153°10'0 0.0
2017-Nov-12 06:07S 27°22' E 153°10'0 0.0
2017-Nov-12 05:31S 27°22' E 153°10'0 0.0
2017-Nov-12 05:22S 27°22' E 153°10'0 0.0
2017-Nov-12 04:13S 27°22' E 153°10'0 0.5
2017-Nov-12 03:59S 27°22' E 153°10'4 7.8
2017-Nov-12 03:30S 27°19' E 153°12'714.9
2017-Nov-12 03:00S 27°15' E 153°19'815.8
2017-Nov-12 02:29S 27°06' E 153°20'714.5
2017-Nov-12 02:00S 27°01' E 153°15'816.4
2017-Nov-12 01:30S 26°54' E 153°11'28 7.0
2017-Nov-11 21:29S 27°05' E 153°39'917.9
2017-Nov-11 20:57S 27°15' E 153°40'818.0
2017-Nov-11 20:31S 27°23' E 153°41'918.8
2017-Nov-11 20:00S 27°32' E 153°42'918.7
2017-Nov-11 19:31S 27°41' E 153°43'918.5
2017-Nov-11 19:01S 27°50' E 153°44'918.7
2017-Nov-11 18:30S 27°60' E 153°44'1019.0
2017-Nov-11 18:00S 28°09' E 153°45'918.9
2017-Nov-11 17:30S 28°19' E 153°46'918.9
2017-Nov-11 17:00S 28°28' E 153°47'1019.1
2017-Nov-11 16:30S 28°38' E 153°48'23518.1
2017-Nov-11 03:31S 32°26' E 152°42'018.1
2017-Nov-11 03:30S 32°26' E 152°42'918.4
2017-Nov-11 03:01S 32°34' E 152°36'917.8
2017-Nov-11 02:30S 32°41' E 152°31'918.0
2017-Nov-11 02:00S 32°49' E 152°25'917.7
2017-Nov-11 01:31S 32°56' E 152°19'918.0
2017-Nov-11 01:01S 33°03' E 152°13'918.3
2017-Nov-11 00:30S 33°11' E 152°07'  
2017-Nov-07 15:58S 38°14' E 149°06'1411.4
2017-Nov-07 14:46S 38°23' E 148°53'411.3
2017-Nov-07 14:26S 38°26' E 148°49'511.4
2017-Nov-07 14:00S 38°29' E 148°44'185 3.6
2017-Nov-05 11:24S 37°49' E 144°55'0 0.0
2017-Nov-05 10:54S 37°49' E 144°55'0 0.0
2017-Nov-05 10:18S 37°49' E 144°55'0 0.0
2017-Nov-05 06:18S 37°49' E 144°55'0 0.5
2017-Nov-05 05:54S 37°49' E 144°55'403 8.1
2017-Nov-03 04:25S 34°15' E 151°57'3716.8
2017-Nov-03 02:13S 33°41' E 152°13'521.7
2017-Nov-03 02:00S 33°36' E 152°15'3516.3
2017-Nov-02 23:50S 33°04' E 152°32'516.0
2017-Nov-02 23:30S 32°59' E 152°34'816.1
2017-Nov-02 23:00S 32°51' E 152°38'  
Track history (hours):
 
Tides and Currents Weather Stations Pressure Air Temp Water Temp Dewpoint Dewpoint Depression Visibility Wind Speed Wind Dir Waves Ship Positions

Lena-s.

Last reported at 2017-Nov-12 22:58 UTC. Time now 2017-Nov-20 00:14 UTC.
Position S 27°22' E 153°10'.

Length 261 m; draft 11 m.

Type: Ship (hazmat cat D). MMSI: 305386000.

Date/timePositionNaut miles runAvg speedWind from/ knotsBaromVisibWave heightAir tempDewpointWater temp
2017-Nov-12 22:58S 27°22' E 153°10'0 0.0
2017-Nov-12 22:28S 27°22' E 153°10'0 0.0
2017-Nov-12 21:55S 27°22' E 153°10'0 0.0
2017-Nov-12 21:25S 27°22' E 153°10'0 0.0
2017-Nov-12 20:28S 27°22' E 153°10'0 0.0
2017-Nov-12 19:58S 27°22' E 153°10'0 0.0
2017-Nov-12 19:28S 27°22' E 153°10'0 0.0
2017-Nov-12 18:58S 27°22' E 153°10'0 0.0
2017-Nov-12 18:19S 27°22' E 153°10'0 0.0
2017-Nov-12 17:58S 27°22' E 153°10'0 0.0
2017-Nov-12 17:28S 27°22' E 153°10'0 0.0
2017-Nov-12 16:58S 27°22' E 153°10'0 0.0
2017-Nov-12 16:28S 27°22' E 153°10'0 0.0
2017-Nov-12 15:58S 27°22' E 153°10'0 0.0
2017-Nov-12 15:28S 27°22' E 153°10'0 0.0
2017-Nov-12 14:58S 27°22' E 153°10'0 0.0
2017-Nov-12 14:28S 27°22' E 153°10'0 0.0
2017-Nov-12 13:58S 27°22' E 153°10'0 0.0
2017-Nov-12 13:28S 27°22' E 153°10'0 0.0
2017-Nov-12 12:58S 27°22' E 153°10'0 0.0
2017-Nov-12 12:19S 27°22' E 153°10'0 0.0
2017-Nov-12 11:58S 27°22' E 153°10'0 0.0
2017-Nov-12 11:22S 27°22' E 153°10'0 0.0
2017-Nov-12 10:43S 27°22' E 153°10'0 0.0
2017-Nov-12 09:46S 27°22' E 153°10'0 0.0
2017-Nov-12 09:16S 27°22' E 153°10'0 0.0
2017-Nov-12 08:55S 27°22' E 153°10'0 0.0
2017-Nov-12 06:37S 27°22' E 153°10'0 0.0
2017-Nov-12 06:07S 27°22' E 153°10'0 0.0
2017-Nov-12 05:31S 27°22' E 153°10'0 0.0
2017-Nov-12 05:22S 27°22' E 153°10'0 0.0
2017-Nov-12 04:13S 27°22' E 153°10'0 0.5
2017-Nov-12 03:59S 27°22' E 153°10'4 7.8
2017-Nov-12 03:30S 27°19' E 153°12'714.9
2017-Nov-12 03:00S 27°15' E 153°19'815.8
2017-Nov-12 02:29S 27°06' E 153°20'714.5
2017-Nov-12 02:00S 27°01' E 153°15'816.4
2017-Nov-12 01:30S 26°54' E 153°11'28 7.0
2017-Nov-11 21:29S 27°05' E 153°39'917.9
2017-Nov-11 20:57S 27°15' E 153°40'818.0
2017-Nov-11 20:31S 27°23' E 153°41'918.8
2017-Nov-11 20:00S 27°32' E 153°42'918.7
2017-Nov-11 19:31S 27°41' E 153°43'918.5
2017-Nov-11 19:01S 27°50' E 153°44'918.7
2017-Nov-11 18:30S 27°60' E 153°44'1019.0
2017-Nov-11 18:00S 28°09' E 153°45'918.9
2017-Nov-11 17:30S 28°19' E 153°46'918.9
2017-Nov-11 17:00S 28°28' E 153°47'1019.1
2017-Nov-11 16:30S 28°38' E 153°48'23518.1
2017-Nov-11 03:31S 32°26' E 152°42'018.1
2017-Nov-11 03:30S 32°26' E 152°42'918.4
2017-Nov-11 03:01S 32°34' E 152°36'917.8
2017-Nov-11 02:30S 32°41' E 152°31'918.0
2017-Nov-11 02:00S 32°49' E 152°25'917.7
2017-Nov-11 01:31S 32°56' E 152°19'918.0
2017-Nov-11 01:01S 33°03' E 152°13'918.3
2017-Nov-11 00:30S 33°11' E 152°07'  
2017-Nov-07 15:58S 38°14' E 149°06'1411.4
2017-Nov-07 14:46S 38°23' E 148°53'411.3
2017-Nov-07 14:26S 38°26' E 148°49'511.4
2017-Nov-07 14:00S 38°29' E 148°44'185 3.6
2017-Nov-05 11:24S 37°49' E 144°55'0 0.0
2017-Nov-05 10:54S 37°49' E 144°55'0 0.0
2017-Nov-05 10:18S 37°49' E 144°55'0 0.0
2017-Nov-05 06:18S 37°49' E 144°55'0 0.5
2017-Nov-05 05:54S 37°49' E 144°55'403 8.1
2017-Nov-03 04:25S 34°15' E 151°57'3716.8
2017-Nov-03 02:13S 33°41' E 152°13'521.7
2017-Nov-03 02:00S 33°36' E 152°15'3516.3
2017-Nov-02 23:50S 33°04' E 152°32'516.0
2017-Nov-02 23:30S 32°59' E 152°34'816.1
2017-Nov-02 23:00S 32°51' E 152°38'  

Dump ship's entire track history